sensor_id;sensor_type;location;lat;lon;timestamp;P1;durP1;ratioP1;P2;durP2;ratioP2
75691;SDS011;64307;52.508;6.090;2023-07-29T00:02:08;6.00;;;3.63;;
75691;SDS011;64307;52.508;6.090;2023-07-29T00:04:33;6.07;;;3.08;;
75691;SDS011;64307;52.508;6.090;2023-07-29T00:06:58;5.43;;;3.07;;
75691;SDS011;64307;52.508;6.090;2023-07-29T00:09:24;5.90;;;3.40;;
75691;SDS011;64307;52.508;6.090;2023-07-29T00:11:49;4.30;;;2.63;;
75691;SDS011;64307;52.508;6.090;2023-07-29T00:14:14;6.72;;;2.78;;
75691;SDS011;64307;52.508;6.090;2023-07-29T00:16:39;5.18;;;2.83;;
75691;SDS011;64307;52.508;6.090;2023-07-29T00:19:05;4.53;;;2.22;;
75691;SDS011;64307;52.508;6.090;2023-07-29T00:21:30;6.03;;;2.67;;
75691;SDS011;64307;52.508;6.090;2023-07-29T00:23:55;6.27;;;2.53;;
75691;SDS011;64307;52.508;6.090;2023-07-29T00:26:23;4.68;;;2.15;;
75691;SDS011;64307;52.508;6.090;2023-07-29T00:28:50;5.10;;;2.13;;
75691;SDS011;64307;52.508;6.090;2023-07-29T00:31:16;6.38;;;2.30;;
75691;SDS011;64307;52.508;6.090;2023-07-29T00:33:41;4.73;;;2.50;;
75691;SDS011;64307;52.508;6.090;2023-07-29T00:36:06;4.50;;;2.37;;
75691;SDS011;64307;52.508;6.090;2023-07-29T00:38:33;5.13;;;2.33;;
75691;SDS011;64307;52.508;6.090;2023-07-29T00:40:58;4.40;;;2.47;;
75691;SDS011;64307;52.508;6.090;2023-07-29T00:43:27;8.00;;;2.65;;
75691;SDS011;64307;52.508;6.090;2023-07-29T00:45:52;4.55;;;2.15;;
75691;SDS011;64307;52.508;6.090;2023-07-29T00:48:18;5.20;;;2.10;;
75691;SDS011;64307;52.508;6.090;2023-07-29T00:50:43;3.80;;;2.17;;
75691;SDS011;64307;52.508;6.090;2023-07-29T00:53:09;4.40;;;1.73;;
75691;SDS011;64307;52.508;6.090;2023-07-29T00:55:34;2.92;;;1.45;;
75691;SDS011;64307;52.508;6.090;2023-07-29T00:58:00;2.85;;;1.20;;
75691;SDS011;64307;52.508;6.090;2023-07-29T01:00:25;3.22;;;1.50;;
75691;SDS011;64307;52.508;6.090;2023-07-29T01:02:51;4.72;;;1.38;;
75691;SDS011;64307;52.508;6.090;2023-07-29T01:05:17;2.78;;;1.00;;
75691;SDS011;64307;52.508;6.090;2023-07-29T01:10:46;4.55;;;1.45;;
75691;SDS011;64307;52.508;6.090;2023-07-29T01:13:21;5.80;;;1.02;;
75691;SDS011;64307;52.508;6.090;2023-07-29T01:15:55;3.90;;;1.35;;
75691;SDS011;64307;52.508;6.090;2023-07-29T01:18:28;2.70;;;1.35;;
75691;SDS011;64307;52.508;6.090;2023-07-29T01:21:01;6.10;;;1.25;;
75691;SDS011;64307;52.508;6.090;2023-07-29T01:23:29;2.53;;;1.00;;
75691;SDS011;64307;52.508;6.090;2023-07-29T01:25:55;2.38;;;1.23;;
75691;SDS011;64307;52.508;6.090;2023-07-29T01:28:20;2.90;;;1.08;;
75691;SDS011;64307;52.508;6.090;2023-07-29T01:30:46;3.38;;;1.00;;
75691;SDS011;64307;52.508;6.090;2023-07-29T01:36:14;2.17;;;0.70;;
75691;SDS011;64307;52.508;6.090;2023-07-29T01:38:48;3.40;;;0.70;;
75691;SDS011;64307;52.508;6.090;2023-07-29T01:41:15;3.10;;;0.70;;
75691;SDS011;64307;52.508;6.090;2023-07-29T01:43:42;2.67;;;0.80;;
75691;SDS011;64307;52.508;6.090;2023-07-29T01:46:12;3.80;;;0.77;;
75691;SDS011;64307;52.508;6.090;2023-07-29T01:48:38;3.75;;;1.13;;
75691;SDS011;64307;52.508;6.090;2023-07-29T01:51:04;4.22;;;0.93;;
75691;SDS011;64307;52.508;6.090;2023-07-29T01:53:30;4.07;;;1.35;;
75691;SDS011;64307;52.508;6.090;2023-07-29T01:55:56;3.97;;;1.23;;
75691;SDS011;64307;52.508;6.090;2023-07-29T01:58:22;3.38;;;0.80;;
75691;SDS011;64307;52.508;6.090;2023-07-29T02:00:47;3.65;;;0.90;;
75691;SDS011;64307;52.508;6.090;2023-07-29T02:03:13;2.97;;;0.80;;
75691;SDS011;64307;52.508;6.090;2023-07-29T02:05:38;4.72;;;1.02;;
75691;SDS011;64307;52.508;6.090;2023-07-29T02:08:03;3.07;;;0.90;;
75691;SDS011;64307;52.508;6.090;2023-07-29T02:10:28;4.57;;;0.93;;
75691;SDS011;64307;52.508;6.090;2023-07-29T02:12:54;3.50;;;1.00;;
75691;SDS011;64307;52.508;6.090;2023-07-29T02:15:19;2.10;;;0.75;;
75691;SDS011;64307;52.508;6.090;2023-07-29T02:17:44;2.83;;;0.80;;
75691;SDS011;64307;52.508;6.090;2023-07-29T02:20:10;2.22;;;0.95;;
75691;SDS011;64307;52.508;6.090;2023-07-29T02:22:35;3.83;;;1.30;;
75691;SDS011;64307;52.508;6.090;2023-07-29T02:25:01;2.95;;;0.93;;
75691;SDS011;64307;52.508;6.090;2023-07-29T02:27:26;2.90;;;0.93;;
75691;SDS011;64307;52.508;6.090;2023-07-29T02:29:53;2.88;;;1.13;;
75691;SDS011;64307;52.508;6.090;2023-07-29T02:32:18;3.25;;;0.90;;
75691;SDS011;64307;52.508;6.090;2023-07-29T02:34:44;3.92;;;0.85;;
75691;SDS011;64307;52.508;6.090;2023-07-29T02:37:09;2.90;;;1.05;;
75691;SDS011;64307;52.508;6.090;2023-07-29T02:39:35;5.93;;;0.83;;
75691;SDS011;64307;52.508;6.090;2023-07-29T02:42:00;2.93;;;1.00;;
75691;SDS011;64307;52.508;6.090;2023-07-29T02:44:25;4.72;;;0.93;;
75691;SDS011;64307;52.508;6.090;2023-07-29T02:46:50;3.10;;;0.80;;
75691;SDS011;64307;52.508;6.090;2023-07-29T02:49:17;4.90;;;1.05;;
75691;SDS011;64307;52.508;6.090;2023-07-29T02:51:42;2.03;;;1.02;;
75691;SDS011;64307;52.508;6.090;2023-07-29T02:54:08;3.58;;;0.80;;
75691;SDS011;64307;52.508;6.090;2023-07-29T02:56:33;3.23;;;1.00;;
75691;SDS011;64307;52.508;6.090;2023-07-29T02:58:58;5.03;;;1.17;;
75691;SDS011;64307;52.508;6.090;2023-07-29T03:01:24;3.55;;;1.08;;
75691;SDS011;64307;52.508;6.090;2023-07-29T03:03:50;4.68;;;0.80;;
75691;SDS011;64307;52.508;6.090;2023-07-29T03:06:15;3.00;;;0.85;;
75691;SDS011;64307;52.508;6.090;2023-07-29T03:08:41;3.53;;;1.20;;
75691;SDS011;64307;52.508;6.090;2023-07-29T03:11:07;6.30;;;1.05;;
75691;SDS011;64307;52.508;6.090;2023-07-29T03:13:37;4.15;;;1.00;;
75691;SDS011;64307;52.508;6.090;2023-07-29T03:16:06;5.82;;;1.60;;
75691;SDS011;64307;52.508;6.090;2023-07-29T03:18:33;3.60;;;1.27;;
75691;SDS011;64307;52.508;6.090;2023-07-29T03:20:58;4.18;;;1.33;;
75691;SDS011;64307;52.508;6.090;2023-07-29T03:23:24;5.45;;;1.38;;
75691;SDS011;64307;52.508;6.090;2023-07-29T03:25:49;3.53;;;1.65;;
75691;SDS011;64307;52.508;6.090;2023-07-29T03:28:16;4.85;;;1.33;;
75691;SDS011;64307;52.508;6.090;2023-07-29T03:30:41;4.47;;;1.55;;
75691;SDS011;64307;52.508;6.090;2023-07-29T03:33:07;4.85;;;1.42;;
75691;SDS011;64307;52.508;6.090;2023-07-29T03:35:32;3.33;;;1.25;;
75691;SDS011;64307;52.508;6.090;2023-07-29T03:37:57;4.40;;;1.40;;
75691;SDS011;64307;52.508;6.090;2023-07-29T03:40:22;5.13;;;1.27;;
75691;SDS011;64307;52.508;6.090;2023-07-29T03:42:48;3.20;;;1.17;;
75691;SDS011;64307;52.508;6.090;2023-07-29T03:45:13;5.57;;;1.50;;
75691;SDS011;64307;52.508;6.090;2023-07-29T03:47:38;3.50;;;1.33;;
75691;SDS011;64307;52.508;6.090;2023-07-29T03:50:04;5.43;;;1.48;;
75691;SDS011;64307;52.508;6.090;2023-07-29T03:52:30;6.63;;;1.50;;
75691;SDS011;64307;52.508;6.090;2023-07-29T03:54:55;5.13;;;1.00;;
75691;SDS011;64307;52.508;6.090;2023-07-29T03:57:20;6.28;;;1.13;;
75691;SDS011;64307;52.508;6.090;2023-07-29T03:59:46;5.68;;;1.70;;
75691;SDS011;64307;52.508;6.090;2023-07-29T04:02:11;4.53;;;1.58;;
75691;SDS011;64307;52.508;6.090;2023-07-29T04:04:36;5.05;;;2.47;;
75691;SDS011;64307;52.508;6.090;2023-07-29T04:19:49;4.63;;;2.05;;
75691;SDS011;64307;52.508;6.090;2023-07-29T04:22:15;5.47;;;2.47;;
75691;SDS011;64307;52.508;6.090;2023-07-29T04:24:41;6.70;;;2.97;;
75691;SDS011;64307;52.508;6.090;2023-07-29T04:27:06;7.45;;;2.92;;
75691;SDS011;64307;52.508;6.090;2023-07-29T04:29:32;8.98;;;3.25;;
75691;SDS011;64307;52.508;6.090;2023-07-29T04:31:57;8.80;;;3.13;;
75691;SDS011;64307;52.508;6.090;2023-07-29T04:34:22;9.75;;;3.15;;
75691;SDS011;64307;52.508;6.090;2023-07-29T04:36:48;7.97;;;3.05;;
75691;SDS011;64307;52.508;6.090;2023-07-29T04:39:13;6.75;;;2.85;;
75691;SDS011;64307;52.508;6.090;2023-07-29T04:41:39;5.95;;;3.33;;
75691;SDS011;64307;52.508;6.090;2023-07-29T04:44:04;8.23;;;3.10;;
75691;SDS011;64307;52.508;6.090;2023-07-29T04:46:30;8.35;;;3.38;;
75691;SDS011;64307;52.508;6.090;2023-07-29T04:48:55;13.07;;;3.75;;
75691;SDS011;64307;52.508;6.090;2023-07-29T04:51:21;9.43;;;3.15;;
75691;SDS011;64307;52.508;6.090;2023-07-29T04:53:46;8.98;;;3.25;;
75691;SDS011;64307;52.508;6.090;2023-07-29T04:56:12;8.82;;;2.90;;
75691;SDS011;64307;52.508;6.090;2023-07-29T04:58:37;7.43;;;2.97;;
75691;SDS011;64307;52.508;6.090;2023-07-29T05:01:03;9.30;;;3.17;;
75691;SDS011;64307;52.508;6.090;2023-07-29T05:03:28;7.22;;;2.75;;
75691;SDS011;64307;52.508;6.090;2023-07-29T05:05:54;11.18;;;3.40;;
75691;SDS011;64307;52.508;6.090;2023-07-29T05:08:20;9.15;;;3.47;;
75691;SDS011;64307;52.508;6.090;2023-07-29T05:10:49;8.82;;;3.35;;
75691;SDS011;64307;52.508;6.090;2023-07-29T05:13:15;8.48;;;3.40;;
75691;SDS011;64307;52.508;6.090;2023-07-29T05:18:16;7.13;;;2.92;;
75691;SDS011;64307;52.508;6.090;2023-07-29T05:20:41;7.40;;;3.08;;
75691;SDS011;64307;52.508;6.090;2023-07-29T05:25:42;9.45;;;3.22;;
75691;SDS011;64307;52.508;6.090;2023-07-29T05:28:07;6.70;;;3.17;;
75691;SDS011;64307;52.508;6.090;2023-07-29T05:30:33;8.15;;;2.92;;
75691;SDS011;64307;52.508;6.090;2023-07-29T05:33:02;8.85;;;2.58;;
75691;SDS011;64307;52.508;6.090;2023-07-29T05:35:29;7.30;;;2.65;;
75691;SDS011;64307;52.508;6.090;2023-07-29T05:37:54;9.77;;;2.53;;
75691;SDS011;64307;52.508;6.090;2023-07-29T05:40:19;5.05;;;2.50;;
75691;SDS011;64307;52.508;6.090;2023-07-29T05:42:45;5.50;;;2.60;;
75691;SDS011;64307;52.508;6.090;2023-07-29T05:45:10;5.53;;;2.50;;
75691;SDS011;64307;52.508;6.090;2023-07-29T05:47:36;5.15;;;2.38;;
75691;SDS011;64307;52.508;6.090;2023-07-29T05:50:02;6.90;;;2.17;;
75691;SDS011;64307;52.508;6.090;2023-07-29T05:52:29;6.05;;;2.13;;
75691;SDS011;64307;52.508;6.090;2023-07-29T05:54:57;5.97;;;2.35;;
75691;SDS011;64307;52.508;6.090;2023-07-29T05:57:23;4.10;;;2.20;;
75691;SDS011;64307;52.508;6.090;2023-07-29T05:59:48;7.72;;;2.58;;
75691;SDS011;64307;52.508;6.090;2023-07-29T06:02:13;5.85;;;1.90;;
75691;SDS011;64307;52.508;6.090;2023-07-29T06:04:42;6.00;;;1.90;;
75691;SDS011;64307;52.508;6.090;2023-07-29T06:07:07;6.88;;;2.65;;
75691;SDS011;64307;52.508;6.090;2023-07-29T06:09:32;5.75;;;2.03;;
75691;SDS011;64307;52.508;6.090;2023-07-29T06:11:58;5.75;;;2.13;;
75691;SDS011;64307;52.508;6.090;2023-07-29T06:14:23;5.17;;;1.77;;
75691;SDS011;64307;52.508;6.090;2023-07-29T06:16:48;6.97;;;1.90;;
75691;SDS011;64307;52.508;6.090;2023-07-29T06:19:14;6.53;;;2.13;;
75691;SDS011;64307;52.508;6.090;2023-07-29T06:21:39;5.38;;;2.40;;
75691;SDS011;64307;52.508;6.090;2023-07-29T06:24:04;4.25;;;1.50;;
75691;SDS011;64307;52.508;6.090;2023-07-29T06:26:30;9.32;;;2.35;;
75691;SDS011;64307;52.508;6.090;2023-07-29T06:29:35;4.63;;;2.17;;
75691;SDS011;64307;52.508;6.090;2023-07-29T06:32:05;5.22;;;1.80;;
75691;SDS011;64307;52.508;6.090;2023-07-29T06:34:38;4.80;;;1.98;;
75691;SDS011;64307;52.508;6.090;2023-07-29T06:37:03;4.88;;;1.63;;
75691;SDS011;64307;52.508;6.090;2023-07-29T06:39:28;4.57;;;1.88;;
75691;SDS011;64307;52.508;6.090;2023-07-29T06:41:53;4.28;;;1.67;;
75691;SDS011;64307;52.508;6.090;2023-07-29T06:44:19;4.63;;;1.57;;
75691;SDS011;64307;52.508;6.090;2023-07-29T06:46:44;5.53;;;1.97;;
75691;SDS011;64307;52.508;6.090;2023-07-29T06:49:09;4.45;;;1.88;;
75691;SDS011;64307;52.508;6.090;2023-07-29T06:51:35;4.43;;;1.63;;
75691;SDS011;64307;52.508;6.090;2023-07-29T06:54:01;5.53;;;1.55;;
75691;SDS011;64307;52.508;6.090;2023-07-29T06:56:27;3.40;;;1.30;;
75691;SDS011;64307;52.508;6.090;2023-07-29T06:58:52;4.15;;;1.65;;
75691;SDS011;64307;52.508;6.090;2023-07-29T07:01:17;4.60;;;1.55;;
75691;SDS011;64307;52.508;6.090;2023-07-29T07:03:43;3.78;;;1.38;;
75691;SDS011;64307;52.508;6.090;2023-07-29T07:06:08;5.72;;;1.50;;
75691;SDS011;64307;52.508;6.090;2023-07-29T07:08:33;4.80;;;1.70;;
75691;SDS011;64307;52.508;6.090;2023-07-29T07:10:59;6.10;;;1.60;;
75691;SDS011;64307;52.508;6.090;2023-07-29T07:13:24;4.68;;;1.73;;
75691;SDS011;64307;52.508;6.090;2023-07-29T07:15:49;5.07;;;1.80;;
75691;SDS011;64307;52.508;6.090;2023-07-29T07:18:14;3.38;;;1.42;;
75691;SDS011;64307;52.508;6.090;2023-07-29T07:20:40;4.80;;;1.50;;
75691;SDS011;64307;52.508;6.090;2023-07-29T07:23:05;4.80;;;1.17;;
75691;SDS011;64307;52.508;6.090;2023-07-29T07:25:34;6.00;;;2.03;;
75691;SDS011;64307;52.508;6.090;2023-07-29T07:28:00;3.70;;;1.38;;
75691;SDS011;64307;52.508;6.090;2023-07-29T07:30:25;5.00;;;1.50;;
75691;SDS011;64307;52.508;6.090;2023-07-29T07:32:50;4.73;;;1.57;;
75691;SDS011;64307;52.508;6.090;2023-07-29T07:35:15;4.30;;;1.27;;
75691;SDS011;64307;52.508;6.090;2023-07-29T07:37:41;5.18;;;1.27;;
75691;SDS011;64307;52.508;6.090;2023-07-29T07:40:06;4.37;;;1.43;;
75691;SDS011;64307;52.508;6.090;2023-07-29T07:42:32;5.15;;;1.42;;
75691;SDS011;64307;52.508;6.090;2023-07-29T07:44:57;5.50;;;1.40;;
75691;SDS011;64307;52.508;6.090;2023-07-29T07:47:23;4.55;;;1.05;;
75691;SDS011;64307;52.508;6.090;2023-07-29T07:49:48;4.63;;;1.43;;
75691;SDS011;64307;52.508;6.090;2023-07-29T07:52:15;4.95;;;1.30;;
75691;SDS011;64307;52.508;6.090;2023-07-29T07:54:40;3.58;;;1.20;;
75691;SDS011;64307;52.508;6.090;2023-07-29T07:57:05;4.13;;;0.87;;
75691;SDS011;64307;52.508;6.090;2023-07-29T07:59:31;5.80;;;1.40;;
75691;SDS011;64307;52.508;6.090;2023-07-29T08:01:56;4.10;;;1.47;;
75691;SDS011;64307;52.508;6.090;2023-07-29T08:04:21;5.47;;;1.37;;
75691;SDS011;64307;52.508;6.090;2023-07-29T08:06:46;5.33;;;1.63;;
75691;SDS011;64307;52.508;6.090;2023-07-29T08:09:12;4.87;;;1.20;;
75691;SDS011;64307;52.508;6.090;2023-07-29T08:11:37;4.83;;;1.73;;
75691;SDS011;64307;52.508;6.090;2023-07-29T08:14:02;3.92;;;1.20;;
75691;SDS011;64307;52.508;6.090;2023-07-29T08:16:29;4.35;;;1.17;;
75691;SDS011;64307;52.508;6.090;2023-07-29T08:18:54;4.35;;;1.15;;
75691;SDS011;64307;52.508;6.090;2023-07-29T08:21:20;4.60;;;1.00;;
75691;SDS011;64307;52.508;6.090;2023-07-29T08:23:45;5.40;;;1.00;;
75691;SDS011;64307;52.508;6.090;2023-07-29T08:26:10;5.50;;;1.07;;
75691;SDS011;64307;52.508;6.090;2023-07-29T08:28:36;5.38;;;1.05;;
75691;SDS011;64307;52.508;6.090;2023-07-29T08:31:03;4.40;;;1.02;;
75691;SDS011;64307;52.508;6.090;2023-07-29T08:33:29;5.97;;;1.20;;
75691;SDS011;64307;52.508;6.090;2023-07-29T08:35:55;4.65;;;1.30;;
75691;SDS011;64307;52.508;6.090;2023-07-29T08:38:20;4.75;;;0.95;;
75691;SDS011;64307;52.508;6.090;2023-07-29T08:43:32;4.10;;;0.73;;
75691;SDS011;64307;52.508;6.090;2023-07-29T08:45:58;3.92;;;1.13;;
75691;SDS011;64307;52.508;6.090;2023-07-29T08:48:32;3.80;;;1.00;;
75691;SDS011;64307;52.508;6.090;2023-07-29T08:51:04;3.85;;;1.38;;
75691;SDS011;64307;52.508;6.090;2023-07-29T08:53:32;3.33;;;0.85;;
75691;SDS011;64307;52.508;6.090;2023-07-29T08:55:58;4.50;;;1.05;;
75691;SDS011;64307;52.508;6.090;2023-07-29T08:58:23;3.20;;;1.13;;
75691;SDS011;64307;52.508;6.090;2023-07-29T09:00:50;4.13;;;0.88;;
75691;SDS011;64307;52.508;6.090;2023-07-29T09:03:16;2.63;;;0.70;;
75691;SDS011;64307;52.508;6.090;2023-07-29T09:05:41;2.63;;;1.02;;
75691;SDS011;64307;52.508;6.090;2023-07-29T09:08:06;4.78;;;1.33;;
75691;SDS011;64307;52.508;6.090;2023-07-29T09:10:35;4.18;;;1.38;;
75691;SDS011;64307;52.508;6.090;2023-07-29T09:13:02;3.67;;;2.00;;
75691;SDS011;64307;52.508;6.090;2023-07-29T09:15:28;4.93;;;1.55;;
75691;SDS011;64307;52.508;6.090;2023-07-29T09:17:57;3.45;;;1.60;;
75691;SDS011;64307;52.508;6.090;2023-07-29T09:20:26;3.33;;;1.25;;
75691;SDS011;64307;52.508;6.090;2023-07-29T09:22:57;7.63;;;1.58;;
75691;SDS011;64307;52.508;6.090;2023-07-29T09:25:28;3.90;;;1.30;;
75691;SDS011;64307;52.508;6.090;2023-07-29T09:28:01;4.25;;;1.55;;
75691;SDS011;64307;52.508;6.090;2023-07-29T09:30:32;6.32;;;1.45;;
75691;SDS011;64307;52.508;6.090;2023-07-29T09:32:57;4.85;;;1.50;;
75691;SDS011;64307;52.508;6.090;2023-07-29T09:35:23;4.65;;;1.80;;
75691;SDS011;64307;52.508;6.090;2023-07-29T09:37:51;4.10;;;1.95;;
75691;SDS011;64307;52.508;6.090;2023-07-29T09:40:17;4.53;;;2.70;;
75691;SDS011;64307;52.508;6.090;2023-07-29T09:42:50;4.40;;;2.75;;
75691;SDS011;64307;52.508;6.090;2023-07-29T09:45:23;5.03;;;3.38;;
75691;SDS011;64307;52.508;6.090;2023-07-29T09:47:49;4.68;;;3.13;;
75691;SDS011;64307;52.508;6.090;2023-07-29T09:50:15;6.38;;;3.03;;
75691;SDS011;64307;52.508;6.090;2023-07-29T09:52:41;6.30;;;2.42;;
75691;SDS011;64307;52.508;6.090;2023-07-29T09:55:09;4.32;;;2.22;;
75691;SDS011;64307;52.508;6.090;2023-07-29T09:57:35;6.78;;;2.35;;
75691;SDS011;64307;52.508;6.090;2023-07-29T10:00:03;3.58;;;1.90;;
75691;SDS011;64307;52.508;6.090;2023-07-29T10:02:35;4.45;;;2.55;;
75691;SDS011;64307;52.508;6.090;2023-07-29T10:05:02;5.18;;;2.28;;
75691;SDS011;64307;52.508;6.090;2023-07-29T10:07:28;5.30;;;2.35;;
75691;SDS011;64307;52.508;6.090;2023-07-29T10:09:55;4.90;;;2.10;;
75691;SDS011;64307;52.508;6.090;2023-07-29T10:12:22;4.35;;;2.20;;
75691;SDS011;64307;52.508;6.090;2023-07-29T10:14:49;4.35;;;2.42;;
75691;SDS011;64307;52.508;6.090;2023-07-29T10:17:16;5.20;;;2.10;;
75691;SDS011;64307;52.508;6.090;2023-07-29T10:19:45;4.18;;;2.25;;
75691;SDS011;64307;52.508;6.090;2023-07-29T10:22:12;5.55;;;1.75;;
75691;SDS011;64307;52.508;6.090;2023-07-29T10:24:40;4.35;;;1.80;;
75691;SDS011;64307;52.508;6.090;2023-07-29T10:27:08;3.97;;;2.20;;
75691;SDS011;64307;52.508;6.090;2023-07-29T10:29:38;3.90;;;1.92;;
75691;SDS011;64307;52.508;6.090;2023-07-29T10:32:08;6.43;;;2.10;;
75691;SDS011;64307;52.508;6.090;2023-07-29T10:34:36;4.18;;;1.83;;
75691;SDS011;64307;52.508;6.090;2023-07-29T10:37:03;4.10;;;1.95;;
75691;SDS011;64307;52.508;6.090;2023-07-29T10:39:32;3.50;;;1.75;;
75691;SDS011;64307;52.508;6.090;2023-07-29T10:42:05;4.00;;;1.75;;
75691;SDS011;64307;52.508;6.090;2023-07-29T10:47:16;6.22;;;1.95;;
75691;SDS011;64307;52.508;6.090;2023-07-29T10:49:53;6.05;;;1.35;;
75691;SDS011;64307;52.508;6.090;2023-07-29T10:54:56;3.83;;;1.42;;
75691;SDS011;64307;52.508;6.090;2023-07-29T10:57:30;6.03;;;1.80;;
75691;SDS011;64307;52.508;6.090;2023-07-29T11:00:00;5.35;;;1.80;;
75691;SDS011;64307;52.508;6.090;2023-07-29T11:02:30;4.28;;;1.73;;
75691;SDS011;64307;52.508;6.090;2023-07-29T11:04:58;4.63;;;1.73;;
75691;SDS011;64307;52.508;6.090;2023-07-29T11:07:29;5.28;;;1.83;;
75691;SDS011;64307;52.508;6.090;2023-07-29T11:09:58;5.03;;;1.60;;
75691;SDS011;64307;52.508;6.090;2023-07-29T11:12:58;3.30;;;1.58;;
75691;SDS011;64307;52.508;6.090;2023-07-29T11:18:01;4.85;;;1.80;;
75691;SDS011;64307;52.508;6.090;2023-07-29T11:20:30;4.15;;;1.58;;
75691;SDS011;64307;52.508;6.090;2023-07-29T11:22:58;5.95;;;1.42;;
75691;SDS011;64307;52.508;6.090;2023-07-29T11:25:25;3.83;;;1.13;;
75691;SDS011;64307;52.508;6.090;2023-07-29T11:27:53;5.28;;;1.23;;
75691;SDS011;64307;52.508;6.090;2023-07-29T11:30:20;3.35;;;1.23;;
75691;SDS011;64307;52.508;6.090;2023-07-29T11:32:46;4.35;;;1.23;;
75691;SDS011;64307;52.508;6.090;2023-07-29T11:35:15;3.80;;;0.80;;
75691;SDS011;64307;52.508;6.090;2023-07-29T11:37:43;5.03;;;1.13;;
75691;SDS011;64307;52.508;6.090;2023-07-29T11:40:14;4.00;;;1.25;;
75691;SDS011;64307;52.508;6.090;2023-07-29T11:42:41;3.35;;;1.08;;
75691;SDS011;64307;52.508;6.090;2023-07-29T11:45:06;3.67;;;1.17;;
75691;SDS011;64307;52.508;6.090;2023-07-29T11:47:34;5.60;;;1.33;;
75691;SDS011;64307;52.508;6.090;2023-07-29T11:50:03;3.78;;;1.65;;
75691;SDS011;64307;52.508;6.090;2023-07-29T11:52:31;3.92;;;0.82;;
75691;SDS011;64307;52.508;6.090;2023-07-29T11:54:58;5.30;;;1.42;;
75691;SDS011;64307;52.508;6.090;2023-07-29T11:57:23;4.70;;;1.23;;
75691;SDS011;64307;52.508;6.090;2023-07-29T11:59:49;2.85;;;0.82;;
75691;SDS011;64307;52.508;6.090;2023-07-29T12:02:15;4.68;;;1.15;;
75691;SDS011;64307;52.508;6.090;2023-07-29T12:04:43;5.70;;;1.17;;
75691;SDS011;64307;52.508;6.090;2023-07-29T12:07:10;4.15;;;1.08;;
75691;SDS011;64307;52.508;6.090;2023-07-29T12:09:35;6.40;;;1.23;;
75691;SDS011;64307;52.508;6.090;2023-07-29T12:12:03;5.90;;;1.05;;
75691;SDS011;64307;52.508;6.090;2023-07-29T12:14:29;6.00;;;1.05;;
75691;SDS011;64307;52.508;6.090;2023-07-29T12:16:54;3.75;;;0.77;;
75691;SDS011;64307;52.508;6.090;2023-07-29T12:19:20;3.00;;;0.73;;
75691;SDS011;64307;52.508;6.090;2023-07-29T12:21:47;3.72;;;0.63;;
75691;SDS011;64307;52.508;6.090;2023-07-29T12:24:12;2.15;;;0.85;;
75691;SDS011;64307;52.508;6.090;2023-07-29T12:26:39;5.32;;;0.90;;
75691;SDS011;64307;52.508;6.090;2023-07-29T12:29:12;2.45;;;0.82;;
75691;SDS011;64307;52.508;6.090;2023-07-29T12:31:41;3.25;;;1.00;;
75691;SDS011;64307;52.508;6.090;2023-07-29T12:34:07;3.92;;;1.25;;
75691;SDS011;64307;52.508;6.090;2023-07-29T12:36:41;2.55;;;1.25;;
75691;SDS011;64307;52.508;6.090;2023-07-29T12:39:15;2.42;;;0.77;;
75691;SDS011;64307;52.508;6.090;2023-07-29T12:41:48;2.80;;;1.05;;
75691;SDS011;64307;52.508;6.090;2023-07-29T12:44:15;3.72;;;1.88;;
75691;SDS011;64307;52.508;6.090;2023-07-29T12:46:40;4.10;;;1.27;;
75691;SDS011;64307;52.508;6.090;2023-07-29T12:49:06;4.65;;;1.33;;
75691;SDS011;64307;52.508;6.090;2023-07-29T12:51:31;3.40;;;1.25;;
75691;SDS011;64307;52.508;6.090;2023-07-29T12:53:57;5.07;;;1.65;;
75691;SDS011;64307;52.508;6.090;2023-07-29T12:56:22;2.67;;;1.23;;
75691;SDS011;64307;52.508;6.090;2023-07-29T12:58:48;4.65;;;1.35;;
75691;SDS011;64307;52.508;6.090;2023-07-29T13:01:13;3.17;;;1.50;;
75691;SDS011;64307;52.508;6.090;2023-07-29T13:03:42;3.03;;;1.33;;
75691;SDS011;64307;52.508;6.090;2023-07-29T13:06:08;3.97;;;1.55;;
75691;SDS011;64307;52.508;6.090;2023-07-29T13:08:33;2.90;;;0.90;;
75691;SDS011;64307;52.508;6.090;2023-07-29T13:10:59;2.67;;;1.00;;
75691;SDS011;64307;52.508;6.090;2023-07-29T13:13:24;2.10;;;0.77;;
75691;SDS011;64307;52.508;6.090;2023-07-29T13:15:49;2.10;;;0.90;;
75691;SDS011;64307;52.508;6.090;2023-07-29T13:18:15;2.75;;;0.68;;
75691;SDS011;64307;52.508;6.090;2023-07-29T13:20:40;3.47;;;1.10;;
75691;SDS011;64307;52.508;6.090;2023-07-29T13:23:05;1.77;;;0.70;;
75691;SDS011;64307;52.508;6.090;2023-07-29T13:25:30;2.38;;;0.80;;
75691;SDS011;64307;52.508;6.090;2023-07-29T13:27:56;2.03;;;0.70;;
75691;SDS011;64307;52.508;6.090;2023-07-29T13:30:21;0.88;;;0.25;;
75691;SDS011;64307;52.508;6.090;2023-07-29T13:32:46;1.45;;;0.52;;
75691;SDS011;64307;52.508;6.090;2023-07-29T13:35:11;2.77;;;0.30;;
75691;SDS011;64307;52.508;6.090;2023-07-29T13:37:37;2.07;;;0.40;;
75691;SDS011;64307;52.508;6.090;2023-07-29T13:40:02;1.57;;;0.40;;
75691;SDS011;64307;52.508;6.090;2023-07-29T13:42:28;1.30;;;0.73;;
75691;SDS011;64307;52.508;6.090;2023-07-29T13:44:53;1.50;;;0.43;;
75691;SDS011;64307;52.508;6.090;2023-07-29T13:47:18;1.92;;;0.50;;
75691;SDS011;64307;52.508;6.090;2023-07-29T13:49:44;1.97;;;0.30;;
75691;SDS011;64307;52.508;6.090;2023-07-29T13:52:09;1.33;;;0.30;;
75691;SDS011;64307;52.508;6.090;2023-07-29T13:54:34;0.93;;;0.20;;
75691;SDS011;64307;52.508;6.090;2023-07-29T13:57:00;2.58;;;0.47;;
75691;SDS011;64307;52.508;6.090;2023-07-29T13:59:26;2.08;;;0.43;;
75691;SDS011;64307;52.508;6.090;2023-07-29T14:01:51;1.40;;;0.57;;
75691;SDS011;64307;52.508;6.090;2023-07-29T14:04:17;1.38;;;0.30;;
75691;SDS011;64307;52.508;6.090;2023-07-29T14:06:42;2.87;;;0.50;;
75691;SDS011;64307;52.508;6.090;2023-07-29T14:09:08;1.50;;;0.52;;
75691;SDS011;64307;52.508;6.090;2023-07-29T14:11:33;1.40;;;0.52;;
75691;SDS011;64307;52.508;6.090;2023-07-29T14:13:58;2.33;;;0.60;;
75691;SDS011;64307;52.508;6.090;2023-07-29T14:16:24;1.90;;;0.93;;
75691;SDS011;64307;52.508;6.090;2023-07-29T14:18:49;4.43;;;0.60;;
75691;SDS011;64307;52.508;6.090;2023-07-29T14:21:14;4.17;;;0.73;;
75691;SDS011;64307;52.508;6.090;2023-07-29T14:23:39;2.13;;;0.57;;
75691;SDS011;64307;52.508;6.090;2023-07-29T14:26:05;2.60;;;0.60;;
75691;SDS011;64307;52.508;6.090;2023-07-29T14:28:30;2.10;;;1.10;;
75691;SDS011;64307;52.508;6.090;2023-07-29T14:30:56;3.03;;;0.88;;
75691;SDS011;64307;52.508;6.090;2023-07-29T14:33:22;4.43;;;1.10;;
75691;SDS011;64307;52.508;6.090;2023-07-29T14:35:47;3.17;;;0.98;;
75691;SDS011;64307;52.508;6.090;2023-07-29T14:38:12;1.80;;;0.77;;
75691;SDS011;64307;52.508;6.090;2023-07-29T14:40:37;5.18;;;1.08;;
75691;SDS011;64307;52.508;6.090;2023-07-29T14:43:03;2.28;;;1.15;;
75691;SDS011;64307;52.508;6.090;2023-07-29T14:45:28;3.08;;;1.30;;
75691;SDS011;64307;52.508;6.090;2023-07-29T14:47:53;3.63;;;1.10;;
75691;SDS011;64307;52.508;6.090;2023-07-29T14:50:19;3.55;;;1.63;;
75691;SDS011;64307;52.508;6.090;2023-07-29T14:52:44;2.50;;;1.35;;
75691;SDS011;64307;52.508;6.090;2023-07-29T14:55:09;3.83;;;1.10;;
75691;SDS011;64307;52.508;6.090;2023-07-29T14:57:34;2.35;;;1.05;;
75691;SDS011;64307;52.508;6.090;2023-07-29T15:00:00;5.10;;;1.25;;
75691;SDS011;64307;52.508;6.090;2023-07-29T15:02:25;2.95;;;1.23;;
75691;SDS011;64307;52.508;6.090;2023-07-29T15:04:51;4.33;;;1.13;;
75691;SDS011;64307;52.508;6.090;2023-07-29T15:07:16;3.30;;;1.00;;
75691;SDS011;64307;52.508;6.090;2023-07-29T15:09:41;4.53;;;1.07;;
75691;SDS011;64307;52.508;6.090;2023-07-29T15:12:07;2.67;;;1.30;;
75691;SDS011;64307;52.508;6.090;2023-07-29T15:14:32;2.95;;;1.27;;
75691;SDS011;64307;52.508;6.090;2023-07-29T15:16:58;5.97;;;1.15;;
75691;SDS011;64307;52.508;6.090;2023-07-29T15:19:23;3.57;;;1.17;;